sensor_id;sensor_type;location;lat;lon;timestamp;P1;durP1;ratioP1;P2;durP2;ratioP2
66012;SDS011;52783;50.502;8.190;2023-02-20T00:01:25;17.60;;;11.05;;
66012;SDS011;52783;50.502;8.190;2023-02-20T00:03:51;16.77;;;11.23;;
66012;SDS011;52783;50.502;8.190;2023-02-20T00:06:17;18.88;;;10.60;;
66012;SDS011;52783;50.502;8.190;2023-02-20T00:08:42;15.75;;;10.93;;
66012;SDS011;52783;50.502;8.190;2023-02-20T00:11:08;18.45;;;10.88;;
66012;SDS011;52783;50.502;8.190;2023-02-20T00:13:33;18.27;;;10.70;;
66012;SDS011;52783;50.502;8.190;2023-02-20T00:15:59;16.35;;;11.00;;
66012;SDS011;52783;50.502;8.190;2023-02-20T00:18:24;16.50;;;11.15;;
66012;SDS011;52783;50.502;8.190;2023-02-20T00:20:50;13.23;;;9.63;;
66012;SDS011;52783;50.502;8.190;2023-02-20T00:23:15;14.00;;;9.55;;
66012;SDS011;52783;50.502;8.190;2023-02-20T00:25:41;16.33;;;9.35;;
66012;SDS011;52783;50.502;8.190;2023-02-20T00:28:07;13.77;;;9.40;;
66012;SDS011;52783;50.502;8.190;2023-02-20T00:30:32;14.75;;;9.80;;
66012;SDS011;52783;50.502;8.190;2023-02-20T00:32:58;15.18;;;9.55;;
66012;SDS011;52783;50.502;8.190;2023-02-20T00:35:24;15.20;;;10.05;;
66012;SDS011;52783;50.502;8.190;2023-02-20T00:37:51;17.02;;;10.13;;
66012;SDS011;52783;50.502;8.190;2023-02-20T00:40:18;18.00;;;10.60;;
66012;SDS011;52783;50.502;8.190;2023-02-20T00:42:46;17.02;;;9.90;;
66012;SDS011;52783;50.502;8.190;2023-02-20T00:45:12;17.70;;;10.52;;
66012;SDS011;52783;50.502;8.190;2023-02-20T00:47:39;17.10;;;10.38;;
66012;SDS011;52783;50.502;8.190;2023-02-20T00:50:05;14.93;;;9.55;;
66012;SDS011;52783;50.502;8.190;2023-02-20T00:52:31;17.25;;;9.80;;
66012;SDS011;52783;50.502;8.190;2023-02-20T00:54:56;13.60;;;8.50;;
66012;SDS011;52783;50.502;8.190;2023-02-20T00:57:22;15.55;;;9.30;;
66012;SDS011;52783;50.502;8.190;2023-02-20T00:59:48;12.55;;;8.43;;
66012;SDS011;52783;50.502;8.190;2023-02-20T01:02:14;16.33;;;8.88;;
66012;SDS011;52783;50.502;8.190;2023-02-20T01:04:40;11.85;;;7.90;;
66012;SDS011;52783;50.502;8.190;2023-02-20T01:07:05;11.45;;;7.97;;
66012;SDS011;52783;50.502;8.190;2023-02-20T01:09:31;11.75;;;8.35;;
66012;SDS011;52783;50.502;8.190;2023-02-20T01:11:56;18.77;;;8.75;;
66012;SDS011;52783;50.502;8.190;2023-02-20T01:14:22;13.25;;;7.55;;
66012;SDS011;52783;50.502;8.190;2023-02-20T01:16:48;11.75;;;7.97;;
66012;SDS011;52783;50.502;8.190;2023-02-20T01:19:16;11.38;;;7.70;;
66012;SDS011;52783;50.502;8.190;2023-02-20T01:21:42;13.65;;;8.13;;
66012;SDS011;52783;50.502;8.190;2023-02-20T01:24:08;14.48;;;8.15;;
66012;SDS011;52783;50.502;8.190;2023-02-20T01:26:34;12.05;;;7.97;;
66012;SDS011;52783;50.502;8.190;2023-02-20T01:29:00;12.48;;;7.35;;
66012;SDS011;52783;50.502;8.190;2023-02-20T01:31:26;10.27;;;7.28;;
66012;SDS011;52783;50.502;8.190;2023-02-20T01:33:52;14.88;;;8.25;;
66012;SDS011;52783;50.502;8.190;2023-02-20T01:36:18;12.77;;;7.40;;
66012;SDS011;52783;50.502;8.190;2023-02-20T01:38:44;12.07;;;8.10;;
66012;SDS011;52783;50.502;8.190;2023-02-20T01:41:12;13.57;;;7.53;;
66012;SDS011;52783;50.502;8.190;2023-02-20T01:43:38;16.75;;;7.78;;
66012;SDS011;52783;50.502;8.190;2023-02-20T01:48:52;12.82;;;7.88;;
66012;SDS011;52783;50.502;8.190;2023-02-20T01:51:27;11.13;;;7.38;;
66012;SDS011;52783;50.502;8.190;2023-02-20T01:53:57;11.23;;;7.45;;
66012;SDS011;52783;50.502;8.190;2023-02-20T01:56:22;13.55;;;7.93;;
66012;SDS011;52783;50.502;8.190;2023-02-20T01:58:48;13.45;;;8.05;;
66012;SDS011;52783;50.502;8.190;2023-02-20T02:01:15;14.07;;;7.68;;
66012;SDS011;52783;50.502;8.190;2023-02-20T02:03:42;14.68;;;8.45;;
66012;SDS011;52783;50.502;8.190;2023-02-20T02:06:10;14.25;;;7.97;;
66012;SDS011;52783;50.502;8.190;2023-02-20T02:08:37;13.07;;;7.88;;
66012;SDS011;52783;50.502;8.190;2023-02-20T02:11:11;14.90;;;7.70;;
66012;SDS011;52783;50.502;8.190;2023-02-20T02:13:41;15.02;;;8.05;;
66012;SDS011;52783;50.502;8.190;2023-02-20T02:30:05;13.70;;;7.35;;
66012;SDS011;52783;50.502;8.190;2023-02-20T02:32:55;11.10;;;7.20;;
66012;SDS011;52783;50.502;8.190;2023-02-20T02:35:47;13.35;;;7.03;;
66012;SDS011;52783;50.502;8.190;2023-02-20T02:38:29;18.50;;;7.25;;
66012;SDS011;52783;50.502;8.190;2023-02-20T02:41:11;13.27;;;7.75;;
66012;SDS011;52783;50.502;8.190;2023-02-20T02:46:34;10.85;;;7.00;;
66012;SDS011;52783;50.502;8.190;2023-02-20T02:49:10;9.48;;;6.82;;
66012;SDS011;52783;50.502;8.190;2023-02-20T02:52:02;11.30;;;6.55;;
66012;SDS011;52783;50.502;8.190;2023-02-20T02:54:29;11.88;;;6.47;;
66012;SDS011;52783;50.502;8.190;2023-02-20T02:59:46;14.23;;;6.88;;
66012;SDS011;52783;50.502;8.190;2023-02-20T03:02:15;12.48;;;6.68;;
66012;SDS011;52783;50.502;8.190;2023-02-20T03:04:42;11.95;;;6.60;;
66012;SDS011;52783;50.502;8.190;2023-02-20T03:07:12;10.40;;;6.22;;
66012;SDS011;52783;50.502;8.190;2023-02-20T03:09:42;13.30;;;6.45;;
66012;SDS011;52783;50.502;8.190;2023-02-20T03:12:12;10.40;;;6.05;;
66012;SDS011;52783;50.502;8.190;2023-02-20T03:14:40;9.05;;;5.78;;
66012;SDS011;52783;50.502;8.190;2023-02-20T03:17:42;9.35;;;5.78;;
66012;SDS011;52783;50.502;8.190;2023-02-20T03:20:16;14.32;;;6.30;;
66012;SDS011;52783;50.502;8.190;2023-02-20T03:22:57;11.30;;;5.75;;
66012;SDS011;52783;50.502;8.190;2023-02-20T03:25:25;8.68;;;5.47;;
66012;SDS011;52783;50.502;8.190;2023-02-20T03:27:58;9.73;;;5.82;;
66012;SDS011;52783;50.502;8.190;2023-02-20T03:30:30;11.82;;;6.43;;
66012;SDS011;52783;50.502;8.190;2023-02-20T03:36:13;11.82;;;5.43;;
66012;SDS011;52783;50.502;8.190;2023-02-20T03:39:03;11.98;;;5.65;;
66012;SDS011;52783;50.502;8.190;2023-02-20T03:44:36;9.10;;;6.13;;
66012;SDS011;52783;50.502;8.190;2023-02-20T03:47:02;8.73;;;5.47;;
66012;SDS011;52783;50.502;8.190;2023-02-20T03:49:34;9.00;;;5.43;;
66012;SDS011;52783;50.502;8.190;2023-02-20T03:54:29;11.32;;;5.88;;
66012;SDS011;52783;50.502;8.190;2023-02-20T03:56:57;16.33;;;6.38;;
66012;SDS011;52783;50.502;8.190;2023-02-20T04:00:09;9.82;;;5.60;;
66012;SDS011;52783;50.502;8.190;2023-02-20T04:02:21;10.38;;;5.82;;
66012;SDS011;52783;50.502;8.190;2023-02-20T04:04:52;9.63;;;5.80;;
66012;SDS011;52783;50.502;8.190;2023-02-20T04:07:25;9.02;;;6.43;;
66012;SDS011;52783;50.502;8.190;2023-02-20T04:09:53;10.55;;;5.93;;
66012;SDS011;52783;50.502;8.190;2023-02-20T04:12:21;13.55;;;5.95;;
66012;SDS011;52783;50.502;8.190;2023-02-20T04:14:53;10.93;;;5.97;;
66012;SDS011;52783;50.502;8.190;2023-02-20T04:17:26;11.27;;;5.93;;
66012;SDS011;52783;50.502;8.190;2023-02-20T04:19:55;10.00;;;5.88;;
66012;SDS011;52783;50.502;8.190;2023-02-20T04:22:25;12.25;;;5.97;;
66012;SDS011;52783;50.502;8.190;2023-02-20T04:24:55;7.68;;;5.50;;
66012;SDS011;52783;50.502;8.190;2023-02-20T04:27:24;8.50;;;5.38;;
66012;SDS011;52783;50.502;8.190;2023-02-20T04:29:50;12.30;;;5.85;;
66012;SDS011;52783;50.502;8.190;2023-02-20T04:32:15;13.00;;;5.93;;
66012;SDS011;52783;50.502;8.190;2023-02-20T04:34:41;10.13;;;6.03;;
66012;SDS011;52783;50.502;8.190;2023-02-20T04:37:11;39.70;;;19.60;;
66012;SDS011;52783;50.502;8.190;2023-02-20T04:39:39;60.63;;;27.42;;
66012;SDS011;52783;50.502;8.190;2023-02-20T04:42:05;31.25;;;14.90;;
66012;SDS011;52783;50.502;8.190;2023-02-20T04:44:31;10.90;;;6.78;;
66012;SDS011;52783;50.502;8.190;2023-02-20T04:46:58;11.63;;;7.00;;
66012;SDS011;52783;50.502;8.190;2023-02-20T04:49:31;13.73;;;7.55;;
66012;SDS011;52783;50.502;8.190;2023-02-20T04:51:57;13.18;;;6.20;;
66012;SDS011;52783;50.502;8.190;2023-02-20T04:54:23;16.55;;;6.75;;
66012;SDS011;52783;50.502;8.190;2023-02-20T04:56:49;9.57;;;6.10;;
66012;SDS011;52783;50.502;8.190;2023-02-20T04:59:15;16.90;;;6.80;;
66012;SDS011;52783;50.502;8.190;2023-02-20T05:01:41;13.10;;;7.55;;
66012;SDS011;52783;50.502;8.190;2023-02-20T05:04:11;16.55;;;7.78;;
66012;SDS011;52783;50.502;8.190;2023-02-20T05:06:41;18.48;;;8.07;;
66012;SDS011;52783;50.502;8.190;2023-02-20T05:09:08;19.00;;;8.50;;
66012;SDS011;52783;50.502;8.190;2023-02-20T05:11:35;17.55;;;8.70;;
66012;SDS011;52783;50.502;8.190;2023-02-20T05:14:02;16.42;;;9.05;;
66012;SDS011;52783;50.502;8.190;2023-02-20T05:16:28;16.90;;;9.18;;
66012;SDS011;52783;50.502;8.190;2023-02-20T05:18:53;21.58;;;10.30;;
66012;SDS011;52783;50.502;8.190;2023-02-20T05:21:19;20.45;;;9.80;;
66012;SDS011;52783;50.502;8.190;2023-02-20T05:24:03;16.35;;;9.48;;
66012;SDS011;52783;50.502;8.190;2023-02-20T05:26:29;21.23;;;9.50;;
66012;SDS011;52783;50.502;8.190;2023-02-20T05:28:55;21.10;;;9.45;;
66012;SDS011;52783;50.502;8.190;2023-02-20T05:31:20;17.98;;;9.98;;
66012;SDS011;52783;50.502;8.190;2023-02-20T05:33:46;14.88;;;8.90;;
66012;SDS011;52783;50.502;8.190;2023-02-20T05:36:11;16.67;;;9.05;;
66012;SDS011;52783;50.502;8.190;2023-02-20T05:38:37;13.00;;;8.45;;
66012;SDS011;52783;50.502;8.190;2023-02-20T05:41:02;18.30;;;9.18;;
66012;SDS011;52783;50.502;8.190;2023-02-20T05:43:28;26.30;;;10.23;;
66012;SDS011;52783;50.502;8.190;2023-02-20T05:45:53;23.25;;;10.40;;
66012;SDS011;52783;50.502;8.190;2023-02-20T05:48:19;25.00;;;10.07;;
66012;SDS011;52783;50.502;8.190;2023-02-20T05:50:44;26.05;;;9.85;;
66012;SDS011;52783;50.502;8.190;2023-02-20T05:53:10;25.92;;;9.73;;
66012;SDS011;52783;50.502;8.190;2023-02-20T05:55:35;23.35;;;11.07;;
66012;SDS011;52783;50.502;8.190;2023-02-20T05:58:01;17.40;;;9.52;;
66012;SDS011;52783;50.502;8.190;2023-02-20T06:00:26;20.48;;;10.00;;
66012;SDS011;52783;50.502;8.190;2023-02-20T06:02:52;23.63;;;9.57;;
66012;SDS011;52783;50.502;8.190;2023-02-20T06:05:17;21.45;;;10.80;;
66012;SDS011;52783;50.502;8.190;2023-02-20T06:07:43;22.90;;;9.98;;
66012;SDS011;52783;50.502;8.190;2023-02-20T06:10:10;23.58;;;9.65;;
66012;SDS011;52783;50.502;8.190;2023-02-20T06:12:36;22.13;;;10.18;;
66012;SDS011;52783;50.502;8.190;2023-02-20T06:15:02;22.73;;;9.85;;
66012;SDS011;52783;50.502;8.190;2023-02-20T06:17:27;23.80;;;9.93;;
66012;SDS011;52783;50.502;8.190;2023-02-20T06:19:54;24.13;;;10.10;;
66012;SDS011;52783;50.502;8.190;2023-02-20T06:22:20;26.80;;;9.50;;
66012;SDS011;52783;50.502;8.190;2023-02-20T06:24:46;19.83;;;8.95;;
66012;SDS011;52783;50.502;8.190;2023-02-20T06:27:12;21.85;;;9.60;;
66012;SDS011;52783;50.502;8.190;2023-02-20T06:29:38;26.33;;;9.55;;
66012;SDS011;52783;50.502;8.190;2023-02-20T06:32:04;21.17;;;8.82;;
66012;SDS011;52783;50.502;8.190;2023-02-20T06:34:29;26.20;;;10.00;;
66012;SDS011;52783;50.502;8.190;2023-02-20T06:36:57;20.13;;;9.05;;
66012;SDS011;52783;50.502;8.190;2023-02-20T06:39:29;24.67;;;9.82;;
66012;SDS011;52783;50.502;8.190;2023-02-20T06:41:55;17.13;;;9.00;;
66012;SDS011;52783;50.502;8.190;2023-02-20T06:44:21;21.75;;;7.90;;
66012;SDS011;52783;50.502;8.190;2023-02-20T06:46:46;17.73;;;8.30;;
66012;SDS011;52783;50.502;8.190;2023-02-20T06:49:12;18.17;;;8.18;;
66012;SDS011;52783;50.502;8.190;2023-02-20T06:51:38;12.50;;;7.05;;
66012;SDS011;52783;50.502;8.190;2023-02-20T06:54:04;15.13;;;7.65;;
66012;SDS011;52783;50.502;8.190;2023-02-20T06:56:31;15.07;;;7.60;;
66012;SDS011;52783;50.502;8.190;2023-02-20T06:58:59;18.45;;;7.53;;
66012;SDS011;52783;50.502;8.190;2023-02-20T07:01:27;19.77;;;8.10;;
66012;SDS011;52783;50.502;8.190;2023-02-20T07:03:55;11.38;;;6.78;;
66012;SDS011;52783;50.502;8.190;2023-02-20T07:06:22;18.02;;;7.75;;
66012;SDS011;52783;50.502;8.190;2023-02-20T07:08:49;24.33;;;7.45;;
66012;SDS011;52783;50.502;8.190;2023-02-20T07:11:16;14.85;;;7.18;;
66012;SDS011;52783;50.502;8.190;2023-02-20T07:13:43;16.45;;;8.45;;
66012;SDS011;52783;50.502;8.190;2023-02-20T07:16:08;10.00;;;6.32;;
66012;SDS011;52783;50.502;8.190;2023-02-20T07:18:34;13.60;;;6.70;;
66012;SDS011;52783;50.502;8.190;2023-02-20T07:21:00;10.55;;;6.57;;
66012;SDS011;52783;50.502;8.190;2023-02-20T07:23:25;14.30;;;5.88;;
66012;SDS011;52783;50.502;8.190;2023-02-20T07:25:51;16.02;;;6.25;;
66012;SDS011;52783;50.502;8.190;2023-02-20T07:28:17;23.38;;;6.50;;
66012;SDS011;52783;50.502;8.190;2023-02-20T07:30:43;18.50;;;5.60;;
66012;SDS011;52783;50.502;8.190;2023-02-20T07:33:11;17.55;;;5.35;;
66012;SDS011;52783;50.502;8.190;2023-02-20T07:35:37;12.60;;;5.95;;
66012;SDS011;52783;50.502;8.190;2023-02-20T07:38:02;14.13;;;5.40;;
66012;SDS011;52783;50.502;8.190;2023-02-20T07:40:28;14.13;;;5.63;;
66012;SDS011;52783;50.502;8.190;2023-02-20T07:42:53;11.77;;;5.13;;
66012;SDS011;52783;50.502;8.190;2023-02-20T07:45:19;14.05;;;5.85;;
66012;SDS011;52783;50.502;8.190;2023-02-20T07:47:44;12.13;;;5.53;;
66012;SDS011;52783;50.502;8.190;2023-02-20T07:50:10;9.10;;;5.03;;
66012;SDS011;52783;50.502;8.190;2023-02-20T07:52:35;12.68;;;5.13;;
66012;SDS011;52783;50.502;8.190;2023-02-20T07:55:01;12.07;;;5.35;;
66012;SDS011;52783;50.502;8.190;2023-02-20T07:57:27;10.77;;;5.15;;
66012;SDS011;52783;50.502;8.190;2023-02-20T07:59:55;14.52;;;5.05;;
66012;SDS011;52783;50.502;8.190;2023-02-20T08:02:20;10.98;;;4.95;;
66012;SDS011;52783;50.502;8.190;2023-02-20T08:04:46;9.32;;;4.65;;
66012;SDS011;52783;50.502;8.190;2023-02-20T08:07:11;11.55;;;5.10;;
66012;SDS011;52783;50.502;8.190;2023-02-20T08:09:37;13.20;;;4.50;;
66012;SDS011;52783;50.502;8.190;2023-02-20T08:12:02;12.10;;;4.25;;
66012;SDS011;52783;50.502;8.190;2023-02-20T08:14:28;11.70;;;5.10;;
66012;SDS011;52783;50.502;8.190;2023-02-20T08:16:55;10.57;;;4.97;;
66012;SDS011;52783;50.502;8.190;2023-02-20T08:19:20;15.23;;;5.30;;
66012;SDS011;52783;50.502;8.190;2023-02-20T08:21:46;11.20;;;4.72;;
66012;SDS011;52783;50.502;8.190;2023-02-20T08:24:11;12.85;;;5.53;;
66012;SDS011;52783;50.502;8.190;2023-02-20T08:26:47;9.30;;;4.90;;
66012;SDS011;52783;50.502;8.190;2023-02-20T08:29:13;11.77;;;4.93;;
66012;SDS011;52783;50.502;8.190;2023-02-20T08:31:40;9.80;;;4.90;;
66012;SDS011;52783;50.502;8.190;2023-02-20T08:34:06;11.23;;;5.18;;
66012;SDS011;52783;50.502;8.190;2023-02-20T08:36:32;12.20;;;4.95;;
66012;SDS011;52783;50.502;8.190;2023-02-20T08:38:57;8.88;;;4.60;;
66012;SDS011;52783;50.502;8.190;2023-02-20T08:41:24;13.30;;;5.05;;
66012;SDS011;52783;50.502;8.190;2023-02-20T08:43:50;11.95;;;4.80;;
66012;SDS011;52783;50.502;8.190;2023-02-20T08:46:15;8.90;;;4.55;;
66012;SDS011;52783;50.502;8.190;2023-02-20T08:48:41;11.35;;;5.20;;
66012;SDS011;52783;50.502;8.190;2023-02-20T08:51:07;9.77;;;4.93;;
66012;SDS011;52783;50.502;8.190;2023-02-20T08:53:33;12.98;;;5.47;;
66012;SDS011;52783;50.502;8.190;2023-02-20T08:56:01;13.02;;;5.00;;
66012;SDS011;52783;50.502;8.190;2023-02-20T08:58:28;9.68;;;5.20;;
66012;SDS011;52783;50.502;8.190;2023-02-20T09:00:54;9.15;;;5.10;;
66012;SDS011;52783;50.502;8.190;2023-02-20T09:03:19;11.80;;;4.75;;
66012;SDS011;52783;50.502;8.190;2023-02-20T09:05:45;10.02;;;4.80;;
66012;SDS011;52783;50.502;8.190;2023-02-20T09:08:11;10.45;;;5.07;;
66012;SDS011;52783;50.502;8.190;2023-02-20T09:10:36;9.52;;;4.78;;
66012;SDS011;52783;50.502;8.190;2023-02-20T09:13:02;8.25;;;5.07;;
66012;SDS011;52783;50.502;8.190;2023-02-20T09:15:27;9.57;;;5.07;;
66012;SDS011;52783;50.502;8.190;2023-02-20T09:17:53;9.77;;;4.63;;
66012;SDS011;52783;50.502;8.190;2023-02-20T09:20:19;16.27;;;5.47;;
66012;SDS011;52783;50.502;8.190;2023-02-20T09:22:46;13.05;;;4.93;;
66012;SDS011;52783;50.502;8.190;2023-02-20T09:25:12;11.55;;;4.68;;
66012;SDS011;52783;50.502;8.190;2023-02-20T09:27:39;10.27;;;4.53;;
66012;SDS011;52783;50.502;8.190;2023-02-20T09:30:05;10.73;;;4.72;;
66012;SDS011;52783;50.502;8.190;2023-02-20T09:32:31;9.82;;;4.82;;
66012;SDS011;52783;50.502;8.190;2023-02-20T09:34:56;11.13;;;4.55;;
66012;SDS011;52783;50.502;8.190;2023-02-20T09:37:22;10.07;;;4.68;;
66012;SDS011;52783;50.502;8.190;2023-02-20T09:39:48;12.45;;;4.60;;
66012;SDS011;52783;50.502;8.190;2023-02-20T09:42:21;9.07;;;4.25;;
66012;SDS011;52783;50.502;8.190;2023-02-20T09:45:10;10.52;;;3.75;;
66012;SDS011;52783;50.502;8.190;2023-02-20T09:53:29;9.05;;;3.75;;
66012;SDS011;52783;50.502;8.190;2023-02-20T09:56:01;10.70;;;3.38;;
66012;SDS011;52783;50.502;8.190;2023-02-20T10:01:18;8.38;;;3.35;;
66012;SDS011;52783;50.502;8.190;2023-02-20T10:06:20;11.27;;;3.78;;
66012;SDS011;52783;50.502;8.190;2023-02-20T10:08:49;8.45;;;3.70;;
66012;SDS011;52783;50.502;8.190;2023-02-20T10:11:20;9.70;;;3.80;;
66012;SDS011;52783;50.502;8.190;2023-02-20T10:20:02;6.75;;;3.72;;
66012;SDS011;52783;50.502;8.190;2023-02-20T10:25:38;5.10;;;3.15;;
66012;SDS011;52783;50.502;8.190;2023-02-20T10:28:10;7.57;;;3.55;;
66012;SDS011;52783;50.502;8.190;2023-02-20T10:33:25;7.15;;;3.42;;
66012;SDS011;52783;50.502;8.190;2023-02-20T10:38:36;10.30;;;3.17;;
66012;SDS011;52783;50.502;8.190;2023-02-20T10:41:28;4.80;;;2.95;;
66012;SDS011;52783;50.502;8.190;2023-02-20T10:44:02;7.07;;;3.17;;
66012;SDS011;52783;50.502;8.190;2023-02-20T10:46:50;12.63;;;3.75;;
66012;SDS011;52783;50.502;8.190;2023-02-20T10:49:24;7.97;;;4.30;;
66012;SDS011;52783;50.502;8.190;2023-02-20T10:51:59;6.05;;;3.25;;
66012;SDS011;52783;50.502;8.190;2023-02-20T10:54:30;7.38;;;3.22;;
66012;SDS011;52783;50.502;8.190;2023-02-20T10:59:46;8.20;;;3.60;;
66012;SDS011;52783;50.502;8.190;2023-02-20T11:02:17;7.05;;;3.42;;
66012;SDS011;52783;50.502;8.190;2023-02-20T11:04:48;6.13;;;3.33;;
66012;SDS011;52783;50.502;8.190;2023-02-20T11:07:21;5.93;;;3.22;;
66012;SDS011;52783;50.502;8.190;2023-02-20T11:09:47;10.82;;;3.42;;
66012;SDS011;52783;50.502;8.190;2023-02-20T11:14:54;7.07;;;3.08;;
66012;SDS011;52783;50.502;8.190;2023-02-20T11:17:24;3.65;;;2.72;;
66012;SDS011;52783;50.502;8.190;2023-02-20T11:19:53;6.60;;;2.40;;
66012;SDS011;52783;50.502;8.190;2023-02-20T11:25:13;4.32;;;2.50;;
66012;SDS011;52783;50.502;8.190;2023-02-20T11:27:47;3.80;;;2.80;;
66012;SDS011;52783;50.502;8.190;2023-02-20T11:32:58;6.63;;;3.58;;
66012;SDS011;52783;50.502;8.190;2023-02-20T11:35:28;8.25;;;3.05;;
66012;SDS011;52783;50.502;8.190;2023-02-20T11:45:48;5.05;;;2.70;;
66012;SDS011;52783;50.502;8.190;2023-02-20T11:48:19;3.55;;;2.50;;
66012;SDS011;52783;50.502;8.190;2023-02-20T11:50:46;7.75;;;3.03;;
66012;SDS011;52783;50.502;8.190;2023-02-20T11:53:26;5.22;;;3.03;;
66012;SDS011;52783;50.502;8.190;2023-02-20T11:56:13;9.25;;;3.58;;
66012;SDS011;52783;50.502;8.190;2023-02-20T11:58:41;7.93;;;3.13;;
66012;SDS011;52783;50.502;8.190;2023-02-20T12:01:26;7.38;;;3.13;;
66012;SDS011;52783;50.502;8.190;2023-02-20T12:03:54;6.43;;;3.30;;
66012;SDS011;52783;50.502;8.190;2023-02-20T12:09:01;7.93;;;3.45;;
66012;SDS011;52783;50.502;8.190;2023-02-20T12:11:28;5.15;;;3.10;;
66012;SDS011;52783;50.502;8.190;2023-02-20T12:13:56;9.50;;;3.20;;
66012;SDS011;52783;50.502;8.190;2023-02-20T12:19:12;5.38;;;3.15;;
66012;SDS011;52783;50.502;8.190;2023-02-20T12:24:49;6.00;;;3.30;;
66012;SDS011;52783;50.502;8.190;2023-02-20T12:27:47;6.55;;;3.70;;
66012;SDS011;52783;50.502;8.190;2023-02-20T12:30:32;6.07;;;3.38;;
66012;SDS011;52783;50.502;8.190;2023-02-20T12:35:34;6.30;;;3.50;;
66012;SDS011;52783;50.502;8.190;2023-02-20T12:41:07;8.27;;;4.13;;
66012;SDS011;52783;50.502;8.190;2023-02-20T12:44:09;6.43;;;3.47;;
66012;SDS011;52783;50.502;8.190;2023-02-20T13:00:46;6.30;;;3.92;;
66012;SDS011;52783;50.502;8.190;2023-02-20T13:05:47;11.70;;;4.20;;
66012;SDS011;52783;50.502;8.190;2023-02-20T13:10:52;9.70;;;4.50;;
66012;SDS011;52783;50.502;8.190;2023-02-20T13:13:25;9.45;;;4.53;;
66012;SDS011;52783;50.502;8.190;2023-02-20T13:21:54;7.82;;;4.22;;
66012;SDS011;52783;50.502;8.190;2023-02-20T13:26:56;10.80;;;4.57;;
66012;SDS011;52783;50.502;8.190;2023-02-20T13:29:30;10.40;;;4.18;;
66012;SDS011;52783;50.502;8.190;2023-02-20T13:32:20;7.88;;;3.92;;
66012;SDS011;52783;50.502;8.190;2023-02-20T13:34:49;9.73;;;4.13;;
66012;SDS011;52783;50.502;8.190;2023-02-20T13:53:40;6.13;;;3.53;;
66012;SDS011;52783;50.502;8.190;2023-02-20T13:56:13;9.88;;;4.50;;
66012;SDS011;52783;50.502;8.190;2023-02-20T13:58:40;7.70;;;4.32;;
66012;SDS011;52783;50.502;8.190;2023-02-20T14:01:06;7.40;;;4.10;;
66012;SDS011;52783;50.502;8.190;2023-02-20T14:03:33;9.25;;;4.07;;
66012;SDS011;52783;50.502;8.190;2023-02-20T14:06:17;9.93;;;4.03;;
66012;SDS011;52783;50.502;8.190;2023-02-20T14:08:47;8.68;;;4.25;;
66012;SDS011;52783;50.502;8.190;2023-02-20T14:11:25;11.20;;;4.45;;
66012;SDS011;52783;50.502;8.190;2023-02-20T14:13:55;8.93;;;4.15;;
66012;SDS011;52783;50.502;8.190;2023-02-20T14:18:47;10.00;;;4.15;;
66012;SDS011;52783;50.502;8.190;2023-02-20T14:21:15;8.68;;;4.63;;
66012;SDS011;52783;50.502;8.190;2023-02-20T14:23:43;9.25;;;4.60;;
66012;SDS011;52783;50.502;8.190;2023-02-20T14:26:20;6.00;;;3.67;;
66012;SDS011;52783;50.502;8.190;2023-02-20T14:28:49;7.10;;;4.00;;
66012;SDS011;52783;50.502;8.190;2023-02-20T14:31:18;10.80;;;4.10;;
66012;SDS011;52783;50.502;8.190;2023-02-20T14:33:44;12.00;;;4.78;;
66012;SDS011;52783;50.502;8.190;2023-02-20T14:36:25;6.53;;;3.75;;
66012;SDS011;52783;50.502;8.190;2023-02-20T14:41:50;9.43;;;4.32;;
66012;SDS011;52783;50.502;8.190;2023-02-20T14:44:18;6.93;;;4.10;;
66012;SDS011;52783;50.502;8.190;2023-02-20T14:46:44;7.68;;;3.70;;
66012;SDS011;52783;50.502;8.190;2023-02-20T14:49:12;9.32;;;3.90;;
66012;SDS011;52783;50.502;8.190;2023-02-20T14:51:39;11.68;;;4.30;;
66012;SDS011;52783;50.502;8.190;2023-02-20T14:54:16;9.30;;;4.10;;
66012;SDS011;52783;50.502;8.190;2023-02-20T14:56:46;9.43;;;4.10;;
66012;SDS011;52783;50.502;8.190;2023-02-20T14:59:22;10.05;;;4.05;;
66012;SDS011;52783;50.502;8.190;2023-02-20T15:02:18;8.05;;;3.70;;
66012;SDS011;52783;50.502;8.190;2023-02-20T15:04:48;9.80;;;4.05;;
66012;SDS011;52783;50.502;8.190;2023-02-20T15:07:25;8.15;;;3.60;;
66012;SDS011;52783;50.502;8.190;2023-02-20T15:09:53;7.72;;;3.78;;
66012;SDS011;52783;50.502;8.190;2023-02-20T15:14:52;7.85;;;3.50;;
66012;SDS011;52783;50.502;8.190;2023-02-20T15:17:22;6.10;;;3.45;;
66012;SDS011;52783;50.502;8.190;2023-02-20T15:19:51;6.45;;;3.60;;
66012;SDS011;52783;50.502;8.190;2023-02-20T15:22:35;7.43;;;3.58;;
66012;SDS011;52783;50.502;8.190;2023-02-20T15:33:39;8.13;;;3.55;;
66012;SDS011;52783;50.502;8.190;2023-02-20T15:36:10;7.07;;;3.40;;
66012;SDS011;52783;50.502;8.190;2023-02-20T15:38:38;10.80;;;3.47;;
66012;SDS011;52783;50.502;8.190;2023-02-20T15:41:04;11.90;;;3.78;;
66012;SDS011;52783;50.502;8.190;2023-02-20T15:43:30;11.05;;;3.58;;
66012;SDS011;52783;50.502;8.190;2023-02-20T15:45:56;10.80;;;3.70;;
66012;SDS011;52783;50.502;8.190;2023-02-20T15:48:22;8.32;;;3.58;;
66012;SDS011;52783;50.502;8.190;2023-02-20T15:50:48;8.07;;;3.20;;
66012;SDS011;52783;50.502;8.190;2023-02-20T15:53:15;5.18;;;3.40;;
66012;SDS011;52783;50.502;8.190;2023-02-20T15:55:43;8.07;;;2.97;;
66012;SDS011;52783;50.502;8.190;2023-02-20T15:58:18;9.90;;;3.08;;
66012;SDS011;52783;50.502;8.190;2023-02-20T16:00:50;6.82;;;3.08;;
66012;SDS011;52783;50.502;8.190;2023-02-20T16:03:17;7.55;;;3.40;;
66012;SDS011;52783;50.502;8.190;2023-02-20T16:05:42;7.85;;;3.25;;
66012;SDS011;52783;50.502;8.190;2023-02-20T16:08:08;6.57;;;3.30;;
66012;SDS011;52783;50.502;8.190;2023-02-20T16:10:33;7.70;;;3.50;;
66012;SDS011;52783;50.502;8.190;2023-02-20T16:12:59;6.45;;;3.47;;
66012;SDS011;52783;50.502;8.190;2023-02-20T16:15:25;9.73;;;3.53;;
66012;SDS011;52783;50.502;8.190;2023-02-20T16:17:51;5.80;;;2.90;;
66012;SDS011;52783;50.502;8.190;2023-02-20T16:20:20;8.52;;;3.45;;
66012;SDS011;52783;50.502;8.190;2023-02-20T16:22:48;8.73;;;3.33;;
66012;SDS011;52783;50.502;8.190;2023-02-20T16:25:15;6.15;;;2.88;;
66012;SDS011;52783;50.502;8.190;2023-02-20T16:27:42;9.23;;;3.47;;
66012;SDS011;52783;50.502;8.190;2023-02-20T16:30:15;8.10;;;3.45;;
66012;SDS011;52783;50.502;8.190;2023-02-20T16:32:45;12.73;;;3.20;;
66012;SDS011;52783;50.502;8.190;2023-02-20T16:35:11;7.93;;;3.35;;
66012;SDS011;52783;50.502;8.190;2023-02-20T16:37:37;6.68;;;3.45;;
66012;SDS011;52783;50.502;8.190;2023-02-20T16:40:03;11.32;;;3.55;;
66012;SDS011;52783;50.502;8.190;2023-02-20T16:42:29;8.32;;;3.35;;
66012;SDS011;52783;50.502;8.190;2023-02-20T16:45:09;8.50;;;3.58;;
66012;SDS011;52783;50.502;8.190;2023-02-20T16:47:37;11.48;;;3.38;;
66012;SDS011;52783;50.502;8.190;2023-02-20T16:50:03;4.47;;;3.08;;
66012;SDS011;52783;50.502;8.190;2023-02-20T16:52:37;4.03;;;2.78;;
66012;SDS011;52783;50.502;8.190;2023-02-20T16:57:45;8.52;;;2.97;;
66012;SDS011;52783;50.502;8.190;2023-02-20T17:00:14;8.70;;;4.10;;
66012;SDS011;52783;50.502;8.190;2023-02-20T17:02:41;7.28;;;3.60;;
66012;SDS011;52783;50.502;8.190;2023-02-20T17:05:07;7.07;;;3.00;;
66012;SDS011;52783;50.502;8.190;2023-02-20T17:07:33;5.40;;;3.17;;
66012;SDS011;52783;50.502;8.190;2023-02-20T17:09:58;6.18;;;3.60;;
66012;SDS011;52783;50.502;8.190;2023-02-20T17:12:25;12.88;;;3.97;;
66012;SDS011;52783;50.502;8.190;2023-02-20T17:14:51;9.25;;;4.63;;
66012;SDS011;52783;50.502;8.190;2023-02-20T17:17:17;4.75;;;3.60;;
66012;SDS011;52783;50.502;8.190;2023-02-20T17:19:43;10.32;;;4.93;;
66012;SDS011;52783;50.502;8.190;2023-02-20T17:22:10;8.95;;;4.60;;